Terminal Aerodrome Forecast
Issued by NWS

Current Version | Previous Version | Text Only | Print | Product List | Glossary On
Versions: 1 2 3 4 5 6 7 8 9 10 11 12 13 14 15 16
768
FTUS45 KABQ 242339
TAFGUP
TAF
KGUP 242339Z 2500/2524 32010KT P6SM SCT070 SCT150
     FM250300 16006KT P6SM SCT150
     FM251800 25007KT P6SM FEW080
     FM252200 25010KT P6SM SCT080 SCT150=

USA.gov is the U.S. government's official web portal to all federal, state and local government web resources and services.